Time;durP1;ratioP1;P1;durP2;ratioP2;P2;SDS_P1;SDS_P2;PMS_P1;PMS_P2;Temp;Humidity;BMP_temperature;BMP_pressure;BME280_temperature;BME280_humidity;BME280_pressure;Samples;Min_cycle;Max_cycle;Signal;HPM_P1;HPM_P2
2023/05/18 00:00:13;;;;;;;7.78;3.60;;;;;;;10.17;69.28;100185.41;411360;23;4411;-70
2023/05/18 00:00:25;;;;;;;7.68;3.40;;;;;;;10.17;69.50;100185.41;409452;23;18124;-70
2023/05/18 00:00:38;;;;;;;8.48;3.38;;;;;;;10.13;69.48;100183.75;413123;23;4598;-70
2023/05/18 00:00:52;;;;;;;8.57;3.60;;;;;;;10.14;69.25;100185.44;408093;23;17900;-71
2023/05/18 00:01:04;;;;;;;7.38;3.60;;;;;;;10.14;68.97;100185.44;407836;23;18073;-71
2023/05/18 00:01:17;;;;;;;5.90;3.10;;;;;;;10.12;69.10;100176.84;410930;23;4609;-71
2023/05/18 00:01:29;;;;;;;6.60;3.08;;;;;;;10.11;69.63;100185.53;406558;23;16040;-72
2023/05/18 00:01:42;;;;;;;7.20;3.22;;;;;;;10.12;69.35;100188.09;411274;23;4471;-71
2023/05/18 00:01:54;;;;;;;6.97;3.50;;;;;;;10.08;69.36;100183.00;407823;23;16401;-70
2023/05/18 00:02:07;;;;;;;7.13;3.72;;;;;;;10.04;70.07;100183.94;411793;23;5274;-71
2023/05/18 00:02:20;;;;;;;7.10;3.67;;;;;;;9.99;69.92;100182.31;406537;23;18011;-71
2023/05/18 00:02:32;;;;;;;7.57;3.67;;;;;;;9.98;70.27;100180.59;410914;23;4608;-71
2023/05/18 00:02:47;;;;;;;6.60;3.60;;;;;;;9.99;69.90;100182.31;407178;23;18662;-70
2023/05/18 00:03:00;;;;;;;7.65;3.42;;;;;;;9.98;70.25;100185.81;409117;23;18127;-70
2023/05/18 00:03:13;;;;;;;8.10;3.47;;;;;;;9.98;69.97;100185.81;413366;23;5147;-71
2023/05/18 00:03:25;;;;;;;7.63;3.65;;;;;;;9.98;69.71;100184.94;408368;23;18287;-71
2023/05/18 00:03:38;;;;;;;7.30;3.58;;;;;;;10.00;70.02;100183.19;413031;23;4528;-72
2023/05/18 00:03:52;;;;;;;7.03;3.65;;;;;;;10.00;69.77;100186.63;407612;23;17890;-72
2023/05/18 00:04:07;;;;;;;8.02;3.78;;;;;;;10.02;69.69;100186.59;407585;23;18353;-72
2023/05/18 00:04:22;;;;;;;7.20;3.65;;;;;;;10.00;69.48;100184.03;409051;23;18260;-70
2023/05/18 00:04:35;;;;;;;6.25;3.50;;;;;;;10.02;69.90;100184.00;408365;23;18056;-70
2023/05/18 00:04:48;;;;;;;7.53;3.35;;;;;;;10.00;69.98;100181.44;412141;23;4518;-70
2023/05/18 00:05:00;;;;;;;6.78;3.38;;;;;;;9.98;70.37;100179.75;410173;23;18985;-70
2023/05/18 00:05:13;;;;;;;5.18;3.47;;;;;;;9.95;70.63;100178.06;412846;23;4460;-70
2023/05/18 00:05:32;;;;;;;5.80;3.55;;;;;;;9.95;71.16;100180.66;409433;23;18295;-70
2023/05/18 00:05:44;;;;;;;7.32;3.78;;;;;;;9.96;70.53;100178.91;408324;23;17813;-71
2023/05/18 00:05:56;;;;;;;6.80;3.63;;;;;;;9.96;70.48;100181.50;413186;23;4434;-71
2023/05/18 00:06:08;;;;;;;6.47;3.58;;;;;;;9.95;70.04;100180.66;410157;23;4438;-72
2023/05/18 00:06:21;;;;;;;6.00;3.38;;;;;;;9.93;70.28;100179.84;413079;23;4405;-71
2023/05/18 00:06:33;;;;;;;6.35;3.42;;;;;;;9.90;70.76;100177.31;411651;23;4646;-71
2023/05/18 00:06:46;;;;;;;6.93;3.25;;;;;;;9.87;71.12;100177.38;409123;23;18250;-70
2023/05/18 00:07:02;;;;;;;6.70;3.40;;;;;;;9.87;70.96;100182.56;413027;23;4977;-70
2023/05/18 00:07:14;;;;;;;6.35;3.70;;;;;;;9.85;70.60;100184.34;406898;23;17640;-70
2023/05/18 00:07:28;;;;;;;5.53;3.50;;;;;;;9.86;70.52;100180.88;411661;23;5550;-70
2023/05/18 00:07:41;;;;;;;5.32;3.50;;;;;;;9.86;70.80;100175.69;409209;23;18007;-70
2023/05/18 00:07:56;;;;;;;6.90;3.67;;;;;;;9.84;71.26;100177.47;409694;23;17974;-72
2023/05/18 00:08:08;;;;;;;7.05;3.70;;;;;;;9.85;71.40;100173.97;413065;23;5184;-72
2023/05/18 00:08:20;;;;;;;6.10;3.60;;;;;;;9.79;71.87;100176.69;409386;23;19025;-72
2023/05/18 00:08:33;;;;;;;6.50;3.65;;;;;;;9.79;71.43;100177.53;411913;23;4448;-72
2023/05/18 00:08:45;;;;;;;8.75;3.78;;;;;;;9.75;71.81;100177.63;410233;23;18931;-71
2023/05/18 00:08:57;;;;;;;9.23;3.90;;;;;;;9.75;71.63;100173.28;412519;23;4487;-71
2023/05/18 00:09:09;;;;;;;7.28;3.67;;;;;;;9.76;71.77;100179.38;409770;23;18363;-71
2023/05/18 00:09:25;;;;;;;6.60;3.50;;;;;;;9.78;71.87;100170.66;413390;23;5134;-71
2023/05/18 00:09:37;;;;;;;6.55;3.35;;;;;;;9.79;71.24;100174.94;408755;23;17752;-71
2023/05/18 00:09:49;;;;;;;6.82;3.40;;;;;;;9.80;71.40;100175.81;408403;23;19317;-71
2023/05/18 00:10:02;;;;;;;7.38;3.60;;;;;;;9.75;71.49;100173.28;413353;23;4547;-71
2023/05/18 00:10:14;;;;;;;6.20;3.60;;;;;;;9.73;71.36;100176.81;409526;23;16778;-71
2023/05/18 00:10:26;;;;;;;5.93;3.50;;;;;;;9.74;71.14;100170.75;412583;23;4482;-72
2023/05/18 00:10:38;;;;;;;6.65;3.50;;;;;;;9.74;71.21;100173.34;411303;23;10041;-72
2023/05/18 00:10:50;;;;;;;7.70;3.63;;;;;;;9.77;70.99;100176.72;403027;23;17911;-72
2023/05/18 00:11:03;;;;;;;8.45;3.78;;;;;;;9.75;71.11;100168.09;412353;23;4481;-72
2023/05/18 00:11:16;;;;;;;7.50;3.78;;;;;;;9.80;71.26;100168.88;409524;23;18622;-71
2023/05/18 00:11:28;;;;;;;6.10;3.60;;;;;;;9.83;70.97;100172.28;412773;23;5268;-72
2023/05/18 00:11:41;;;;;;;5.28;3.50;;;;;;;9.86;70.81;100174.81;408200;23;18018;-72
2023/05/18 00:11:54;;;;;;;5.07;3.50;;;;;;;9.87;70.98;100179.97;409171;23;8844;-71
2023/05/18 00:12:08;;;;;;;6.38;3.53;;;;;;;9.88;70.67;100176.50;410886;23;4990;-71
2023/05/18 00:12:20;;;;;;;8.20;3.83;;;;;;;9.89;70.50;100170.41;408205;23;19222;-71
2023/05/18 00:12:32;;;;;;;7.80;3.80;;;;;;;9.88;70.39;100173.91;412736;23;4509;-71
2023/05/18 00:12:47;;;;;;;6.07;3.80;;;;;;;9.84;71.08;100171.38;408695;23;18120;-71
2023/05/18 00:12:59;;;;;;;6.13;3.85;;;;;;;9.82;71.21;100178.34;408174;23;18137;-71
2023/05/18 00:13:11;;;;;;;7.18;3.85;;;;;;;9.78;71.20;100167.19;411167;23;4705;-70
2023/05/18 00:13:23;;;;;;;6.57;3.70;;;;;;;9.79;71.14;100174.09;412513;23;5420;-70
2023/05/18 00:13:36;;;;;;;6.40;3.90;;;;;;;9.78;71.05;100173.25;409146;23;18077;-71
2023/05/18 00:13:48;;;;;;;6.97;3.88;;;;;;;9.80;71.00;100168.88;412534;23;5376;-72
2023/05/18 00:14:02;;;;;;;7.60;3.75;;;;;;;9.77;70.72;100171.53;409036;23;18140;-72
2023/05/18 00:14:14;;;;;;;6.43;3.60;;;;;;;9.81;70.69;100174.91;408535;23;9503;-72
2023/05/18 00:14:26;;;;;;;6.15;3.60;;;;;;;9.81;70.92;100172.31;412699;23;5219;-72
2023/05/18 00:14:38;;;;;;;6.65;3.67;;;;;;;9.84;70.73;100169.66;412495;23;4797;-72
2023/05/18 00:14:50;;;;;;;7.10;3.60;;;;;;;9.84;70.90;100163.59;409102;23;18393;-72
2023/05/18 00:15:02;;;;;;;7.10;3.50;;;;;;;9.85;70.42;100173.97;412943;23;5436;-72
2023/05/18 00:15:14;;;;;;;8.30;3.50;;;;;;;9.85;70.46;100163.56;408592;23;18366;-73
2023/05/18 00:15:26;;;;;;;9.52;3.53;;;;;;;9.86;70.51;100170.50;412414;23;5189;-72
2023/05/18 00:15:39;;;;;;;7.78;3.30;;;;;;;9.88;70.25;100170.44;408250;23;9461;-75
2023/05/18 00:15:51;;;;;;;5.68;3.30;;;;;;;9.87;69.98;100167.00;411563;23;4573;-74
2023/05/18 00:16:03;;;;;;;5.68;3.50;;;;;;;9.88;70.28;100173.91;413236;23;4454;-74
2023/05/18 00:16:15;;;;;;;5.20;3.55;;;;;;;9.88;70.22;100168.72;409213;23;17948;-72
2023/05/18 00:16:27;;;;;;;5.50;3.63;;;;;;;9.88;70.50;100170.44;412850;23;4510;-72
2023/05/18 00:16:39;;;;;;;5.15;3.40;;;;;;;9.89;70.23;100173.00;407693;23;16568;-72
2023/05/18 00:16:54;;;;;;;5.13;3.45;;;;;;;9.87;70.17;100172.19;411619;23;4629;-72
2023/05/18 00:17:07;;;;;;;5.07;3.35;;;;;;;9.88;70.01;100170.44;398516;23;18617;-72
2023/05/18 00:17:20;;;;;;;6.40;3.72;;;;;;;9.85;69.93;100171.34;407277;23;4743;-72
2023/05/18 00:17:32;;;;;;;6.18;3.80;;;;;;;9.82;69.59;100167.97;411646;23;5610;-72
2023/05/18 00:17:44;;;;;;;7.20;3.70;;;;;;;9.79;69.94;100168.91;409009;23;18095;-72
2023/05/18 00:17:57;;;;;;;7.80;3.60;;;;;;;9.75;70.11;100164.66;413273;23;4465;-71
2023/05/18 00:18:09;;;;;;;6.95;3.63;;;;;;;9.76;70.42;100171.56;409722;23;19203;-71
2023/05/18 00:18:23;;;;;;;6.72;3.63;;;;;;;9.73;70.66;100175.06;412720;23;4920;-71
2023/05/18 00:18:35;;;;;;;6.72;3.70;;;;;;;9.74;70.88;100168.16;410304;23;18385;-71
2023/05/18 00:18:47;;;;;;;8.40;3.95;;;;;;;9.73;70.89;100162.09;413505;23;4542;-70
2023/05/18 00:19:01;;;;;;;7.35;3.70;;;;;;;9.74;70.75;100165.56;409159;23;18248;-72
2023/05/18 00:19:14;;;;;;;5.85;3.65;;;;;;;9.74;70.60;100163.81;413001;23;4609;-70
2023/05/18 00:19:28;;;;;;;5.82;3.80;;;;;;;9.78;70.46;100164.59;409491;23;18353;-70
2023/05/18 00:19:40;;;;;;;5.78;3.80;;;;;;;9.76;70.36;100163.78;410005;23;18181;-70
2023/05/18 00:19:52;;;;;;;5.78;3.67;;;;;;;9.80;70.18;100170.63;413119;23;4529;-70
2023/05/18 00:20:05;;;;;;;5.78;3.92;;;;;;;9.79;69.82;100159.34;408366;23;18094;-71
2023/05/18 00:20:20;;;;;;;6.40;3.80;;;;;;;9.79;69.88;100166.31;411370;23;5579;-70
2023/05/18 00:20:33;;;;;;;7.18;3.80;;;;;;;9.78;69.34;100167.19;407147;23;18196;-70
2023/05/18 00:20:45;;;;;;;7.20;3.78;;;;;;;9.79;69.47;100169.75;405848;23;18131;-71
2023/05/18 00:21:00;;;;;;;6.88;3.83;;;;;;;9.79;69.58;100169.75;410734;23;5382;-70
2023/05/18 00:21:15;;;;;;;5.88;3.80;;;;;;;9.82;69.49;100163.66;407892;23;17946;-71
2023/05/18 00:21:29;;;;;;;7.28;3.67;;;;;;;9.82;69.63;100163.66;407495;23;17735;-70
2023/05/18 00:21:42;;;;;;;7.00;3.45;;;;;;;9.81;69.79;100161.94;408153;23;18152;-70
2023/05/18 00:21:55;;;;;;;5.50;3.50;;;;;;;9.81;69.41;100169.72;406545;23;18329;-71
2023/05/18 00:22:07;;;;;;;7.28;3.63;;;;;;;9.78;69.75;100162.84;411249;23;4780;-70
2023/05/18 00:22:19;;;;;;;7.80;3.80;;;;;;;9.76;69.79;100168.97;407782;23;19369;-71
2023/05/18 00:22:31;;;;;;;6.25;3.65;;;;;;;9.76;70.12;100163.78;411046;23;4601;-70
2023/05/18 00:22:43;;;;;;;6.50;3.50;;;;;;;9.77;69.94;100163.72;410201;23;4540;-71
2023/05/18 00:22:55;;;;;;;7.78;3.53;;;;;;;9.77;69.83;100160.28;408369;23;17577;-70
2023/05/18 00:23:09;;;;;;;7.03;3.60;;;;;;;9.75;69.97;100162.91;410706;23;5220;-70
2023/05/18 00:23:23;;;;;;;7.63;3.80;;;;;;;9.78;70.02;100160.25;405853;23;19029;-70
2023/05/18 00:23:38;;;;;;;7.72;3.97;;;;;;;9.77;69.87;100160.28;407046;23;17959;-70
2023/05/18 00:23:51;;;;;;;7.30;3.80;;;;;;;9.78;69.82;100156.81;396717;23;17879;-72
2023/05/18 00:24:03;;;;;;;6.63;3.60;;;;;;;9.77;69.57;100165.47;409047;23;5008;-70
2023/05/18 00:24:15;;;;;;;6.22;3.42;;;;;;;9.77;69.50;100166.31;404000;23;17991;-71
2023/05/18 00:24:27;;;;;;;6.88;3.50;;;;;;;9.78;69.54;100160.25;409111;23;5168;-70
2023/05/18 00:24:39;;;;;;;6.97;3.55;;;;;;;9.80;69.60;100162.84;407146;23;16187;-71
2023/05/18 00:24:51;;;;;;;8.20;3.85;;;;;;;9.79;69.60;100164.56;411131;23;5471;-70
2023/05/18 00:25:03;;;;;;;9.18;4.00;;;;;;;9.78;69.24;100162.00;411032;23;5136;-70
2023/05/18 00:25:16;;;;;;;8.05;3.97;;;;;;;9.77;69.54;100158.53;408086;23;17966;-71
2023/05/18 00:25:28;;;;;;;6.35;3.70;;;;;;;9.77;69.37;100155.09;411424;23;4537;-72
2023/05/18 00:25:40;;;;;;;6.70;3.70;;;;;;;9.77;69.30;100155.94;406706;23;10378;-72
2023/05/18 00:25:52;;;;;;;6.50;3.70;;;;;;;9.75;69.30;100156.88;410859;23;4430;-72
2023/05/18 00:26:04;;;;;;;7.78;3.75;;;;;;;9.75;69.75;100151.69;406195;23;6586;-72
2023/05/18 00:26:16;;;;;;;8.52;3.85;;;;;;;9.72;69.55;100163.00;409116;23;17668;-72
2023/05/18 00:26:28;;;;;;;6.70;3.78;;;;;;;9.69;70.27;100157.00;412824;23;4471;-72
2023/05/18 00:26:42;;;;;;;7.43;3.97;;;;;;;9.69;70.25;100155.25;409744;23;17938;-72
2023/05/18 00:26:54;;;;;;;7.82;4.05;;;;;;;9.71;70.42;100160.41;410518;23;9499;-73
2023/05/18 00:27:06;;;;;;;7.25;3.80;;;;;;;9.71;70.26;100155.22;411566;23;18025;-70
2023/05/18 00:27:18;;;;;;;6.18;3.53;;;;;;;9.71;70.54;100160.41;413003;23;4450;-70
2023/05/18 00:27:30;;;;;;;6.28;3.58;;;;;;;9.70;70.76;100159.56;410105;23;17957;-70
2023/05/18 00:27:42;;;;;;;5.72;3.60;;;;;;;9.70;70.63;100159.56;413097;23;4802;-70
2023/05/18 00:27:54;;;;;;;5.47;3.53;;;;;;;9.70;70.66;100153.50;406280;23;4512;-72
2023/05/18 00:28:06;;;;;;;5.63;3.33;;;;;;;9.69;70.60;100155.25;410857;23;5227;-70
2023/05/18 00:28:18;;;;;;;6.65;3.20;;;;;;;9.72;70.53;100159.53;410899;23;4518;-72
2023/05/18 00:28:30;;;;;;;7.70;3.45;;;;;;;9.71;70.28;100160.41;406700;23;18155;-72
2023/05/18 00:28:42;;;;;;;7.93;3.50;;;;;;;9.72;70.29;100154.34;411053;23;4430;-74
2023/05/18 00:28:54;;;;;;;7.53;3.40;;;;;;;9.72;70.29;100151.75;406684;23;16491;-74
2023/05/18 00:29:07;;;;;;;6.40;3.53;;;;;;;9.71;69.93;100160.41;409778;23;4604;-71
2023/05/18 00:29:19;;;;;;;5.87;3.53;;;;;;;9.72;69.71;100159.53;407225;23;20183;-71
2023/05/18 00:29:31;;;;;;;5.35;3.38;;;;;;;9.72;69.79;100156.94;411463;23;4668;-71
2023/05/18 00:29:43;;;;;;;7.10;3.40;;;;;;;9.72;69.75;100159.53;411080;23;5221;-71
2023/05/18 00:29:55;;;;;;;6.75;3.58;;;;;;;9.72;69.74;100157.78;407441;23;18347;-71
2023/05/18 00:30:11;;;;;;;6.35;3.55;;;;;;;9.73;69.52;100154.28;411524;23;4827;-73
2023/05/18 00:30:24;;;;;;;6.03;3.40;;;;;;;9.73;69.73;100159.50;408863;23;18422;-73
2023/05/18 00:30:36;;;;;;;6.55;3.30;;;;;;;9.70;69.86;100154.38;409543;23;18187;-73
2023/05/18 00:30:48;;;;;;;8.00;3.50;;;;;;;9.73;69.54;100156.03;413091;23;4601;-71
2023/05/18 00:31:00;;;;;;;7.28;3.28;;;;;;;9.74;69.72;100155.19;408371;23;18079;-71
2023/05/18 00:31:12;;;;;;;6.70;3.45;;;;;;;9.76;69.66;100153.41;411238;23;4466;-71
2023/05/18 00:31:24;;;;;;;6.07;3.40;;;;;;;9.75;69.61;100157.72;409809;23;10247;-73
2023/05/18 00:31:41;;;;;;;6.57;3.50;;;;;;;9.75;69.75;100156.88;412189;23;4493;-72
2023/05/18 00:31:53;;;;;;;6.30;3.53;;;;;;;9.74;69.43;100155.19;407875;23;18668;-70
2023/05/18 00:32:05;;;;;;;5.72;3.47;;;;;;;9.74;69.30;100149.97;409693;23;17724;-72
2023/05/18 00:32:17;;;;;;;6.10;3.55;;;;;;;9.74;69.48;100160.38;410373;23;4485;-70
2023/05/18 00:32:29;;;;;;;6.82;3.60;;;;;;;9.74;69.78;100158.63;408006;23;10359;-71
2023/05/18 00:32:41;;;;;;;6.63;3.53;;;;;;;9.73;69.69;100153.44;411189;23;4410;-71
2023/05/18 00:32:53;;;;;;;5.47;3.38;;;;;;;9.72;69.53;100152.59;410555;23;5178;-70
2023/05/18 00:33:05;;;;;;;5.75;3.47;;;;;;;9.71;69.53;100150.03;406675;23;18104;-70
2023/05/18 00:33:18;;;;;;;6.20;3.40;;;;;;;9.70;69.49;100154.38;411210;23;4793;-70
2023/05/18 00:33:30;;;;;;;7.10;3.45;;;;;;;9.69;69.69;100157.84;406839;23;17673;-70
2023/05/18 00:33:44;;;;;;;7.45;3.20;;;;;;;9.70;69.58;100156.97;411441;23;5232;-70
2023/05/18 00:33:56;;;;;;;7.15;3.30;;;;;;;9.71;69.50;100155.22;407254;23;16601;-71
2023/05/18 00:34:08;;;;;;;5.75;3.22;;;;;;;9.71;69.35;100155.22;410330;23;4599;-70
2023/05/18 00:34:20;;;;;;;4.38;3.08;;;;;;;9.68;69.64;100152.69;407841;23;18303;-70
2023/05/18 00:34:32;;;;;;;4.50;3.10;;;;;;;9.68;69.59;100152.69;413347;23;5091;-70
2023/05/18 00:34:44;;;;;;;5.95;3.30;;;;;;;9.69;69.63;100162.19;409627;23;16770;-71
2023/05/18 00:34:56;;;;;;;6.72;3.28;;;;;;;9.67;69.61;100158.78;412927;23;5005;-70
2023/05/18 00:35:09;;;;;;;8.32;3.20;;;;;;;9.67;69.39;100153.59;412997;23;4457;-70
2023/05/18 00:35:21;;;;;;;7.13;3.20;;;;;;;9.69;69.30;100154.41;409667;23;19257;-70
2023/05/18 00:35:33;;;;;;;6.78;3.30;;;;;;;9.69;69.30;100157.00;412953;23;5189;-70
2023/05/18 00:35:45;;;;;;;6.07;3.30;;;;;;;9.69;68.91;100157.00;409787;23;17985;-71
2023/05/18 00:35:58;;;;;;;6.47;3.20;;;;;;;9.69;69.09;100157.00;399919;23;5140;-71
2023/05/18 00:36:10;;;;;;;7.80;3.45;;;;;;;9.70;68.88;100158.69;408686;23;18599;-71
2023/05/18 00:36:22;;;;;;;6.55;3.60;;;;;;;9.70;68.94;100158.69;412899;23;4495;-71
2023/05/18 00:36:35;;;;;;;5.78;3.40;;;;;;;9.72;68.83;100156.94;411951;23;10581;-73
2023/05/18 00:36:47;;;;;;;4.90;3.10;;;;;;;9.72;68.78;100154.34;410391;23;18203;-70
2023/05/18 00:36:59;;;;;;;8.00;3.13;;;;;;;9.71;68.70;100160.41;410600;23;5115;-72
2023/05/18 00:37:11;;;;;;;9.25;3.30;;;;;;;9.69;69.23;100154.41;410415;23;17805;-70
2023/05/18 00:37:23;;;;;;;9.05;3.22;;;;;;;9.69;69.19;100149.22;413143;23;5374;-70
2023/05/18 00:37:35;;;;;;;6.07;3.30;;;;;;;9.70;68.98;100153.50;409688;23;18320;-72
2023/05/18 00:37:50;;;;;;;6.75;3.35;;;;;;;9.70;69.22;100149.19;412453;23;4659;-72
2023/05/18 00:38:02;;;;;;;6.65;3.40;;;;;;;9.69;69.28;100154.41;409569;23;18551;-72
2023/05/18 00:38:14;;;;;;;7.25;3.45;;;;;;;9.67;69.53;100154.44;409232;23;5745;-71
2023/05/18 00:38:29;;;;;;;6.65;3.30;;;;;;;9.66;69.53;100157.91;412873;23;5221;-71
2023/05/18 00:38:41;;;;;;;5.72;3.20;;;;;;;9.67;69.54;100154.44;409056;23;17599;-72
2023/05/18 00:38:53;;;;;;;6.30;3.40;;;;;;;9.66;69.00;100151.84;413270;23;4533;-72
2023/05/18 00:39:07;;;;;;;6.55;3.30;;;;;;;9.66;69.23;100154.44;409456;23;18051;-72
2023/05/18 00:39:19;;;;;;;7.85;3.40;;;;;;;9.67;69.22;100153.59;409510;23;17408;-72
2023/05/18 00:39:31;;;;;;;6.28;3.20;;;;;;;9.69;69.46;100157.00;412197;23;4484;-72
2023/05/18 00:39:43;;;;;;;6.53;3.22;;;;;;;9.68;69.25;100155.28;412163;23;4939;-72
2023/05/18 00:39:55;;;;;;;6.40;3.08;;;;;;;9.68;69.42;100155.28;403131;23;19059;-70
2023/05/18 00:40:09;;;;;;;6.18;2.92;;;;;;;9.68;69.24;100155.28;412543;23;4790;-70
2023/05/18 00:40:24;;;;;;;8.82;3.22;;;;;;;9.65;69.65;100155.34;409460;23;18224;-72
2023/05/18 00:40:36;;;;;;;7.85;3.22;;;;;;;9.64;69.62;100153.63;409350;23;17943;-71
2023/05/18 00:40:48;;;;;;;5.93;3.05;;;;;;;9.64;69.84;100153.63;412816;23;5250;-71
2023/05/18 00:41:00;;;;;;;5.68;3.20;;;;;;;9.65;69.68;100156.19;407652;23;17885;-72
2023/05/18 00:41:12;;;;;;;5.25;3.20;;;;;;;9.66;69.67;100151.84;411649;23;4450;-72
2023/05/18 00:41:25;;;;;;;6.97;3.28;;;;;;;9.67;69.51;100154.44;408099;23;4692;-72
2023/05/18 00:41:37;;;;;;;7.75;3.20;;;;;;;9.66;69.36;100151.84;411540;23;4485;-72
2023/05/18 00:41:50;;;;;;;7.10;3.22;;;;;;;9.65;69.78;100160.53;408215;23;16530;-73
2023/05/18 00:42:02;;;;;;;5.68;3.30;;;;;;;9.65;69.65;100153.59;413038;23;4543;-72
2023/05/18 00:42:14;;;;;;;7.72;3.33;;;;;;;9.63;69.84;100151.94;411594;23;9828;-72
2023/05/18 00:42:26;;;;;;;8.13;3.20;;;;;;;9.63;69.29;100154.53;409744;23;18660;-72
2023/05/18 00:42:38;;;;;;;6.63;3.20;;;;;;;9.60;69.22;100153.72;412430;23;4915;-72
2023/05/18 00:42:50;;;;;;;5.90;3.22;;;;;;;9.60;69.51;100158.91;407962;23;18397;-72
2023/05/18 00:43:02;;;;;;;6.13;3.15;;;;;;;9.62;69.35;100160.59;412562;23;4508;-73
2023/05/18 00:43:14;;;;;;;6.00;3.10;;;;;;;9.62;69.47;100155.41;411928;23;9129;-71
2023/05/18 00:43:26;;;;;;;5.32;2.83;;;;;;;9.64;69.26;100158.81;408952;23;18557;-70
2023/05/18 00:43:41;;;;;;;4.47;2.88;;;;;;;9.64;69.23;100151.91;412606;23;4465;-70
2023/05/18 00:43:57;;;;;;;5.65;3.20;;;;;;;9.64;68.92;100161.41;409523;23;17837;-70
2023/05/18 00:44:09;;;;;;;5.80;3.33;;;;;;;9.65;69.14;100156.19;399672;23;17518;-71
2023/05/18 00:44:21;;;;;;;4.88;3.00;;;;;;;9.66;69.43;100151.84;411286;23;5518;-70
2023/05/18 00:44:36;;;;;;;4.07;2.70;;;;;;;9.68;69.25;100160.47;407786;23;18028;-70
2023/05/18 00:44:49;;;;;;;4.30;2.60;;;;;;;9.69;69.31;100151.81;411317;23;5467;-70
2023/05/18 00:45:02;;;;;;;5.47;2.65;;;;;;;9.69;69.16;100155.25;406379;23;17675;-70
2023/05/18 00:45:14;;;;;;;6.95;2.92;;;;;;;9.69;69.35;100157.00;410608;23;4613;-73
2023/05/18 00:45:26;;;;;;;8.90;3.22;;;;;;;9.69;68.99;100151.81;407358;23;17927;-70
2023/05/18 00:45:38;;;;;;;8.10;3.20;;;;;;;9.69;69.25;100151.81;410541;23;4635;-72
2023/05/18 00:45:50;;;;;;;6.38;3.08;;;;;;;9.68;69.24;100155.28;405794;23;17979;-70
2023/05/18 00:46:02;;;;;;;6.97;3.00;;;;;;;9.68;69.09;100155.28;409306;23;4492;-70
2023/05/18 00:46:14;;;;;;;8.52;3.08;;;;;;;9.67;69.25;100158.78;411034;23;4539;-71
2023/05/18 00:46:27;;;;;;;8.52;3.22;;;;;;;9.65;69.37;100155.34;409096;23;18125;-72
2023/05/18 00:46:40;;;;;;;7.15;3.72;;;;;;;9.65;69.36;100156.19;408960;23;4712;-70
2023/05/18 00:46:52;;;;;;;7.05;3.70;;;;;;;9.65;69.10;100155.34;411614;23;4559;-72
2023/05/18 00:47:04;;;;;;;4.95;2.78;;;;;;;9.66;68.98;100157.91;408837;23;5145;-72
2023/05/18 00:47:19;;;;;;;4.90;2.80;;;;;;;9.67;69.45;100158.78;409006;23;18127;-72
2023/05/18 00:47:31;;;;;;;5.60;2.80;;;;;;;9.65;69.24;100145.81;409530;23;17981;-71
2023/05/18 00:47:43;;;;;;;5.63;2.72;;;;;;;9.62;69.21;100155.41;412299;23;5428;-72
2023/05/18 00:47:55;;;;;;;5.70;2.72;;;;;;;9.60;69.24;100148.53;409307;23;17910;-72
2023/05/18 00:48:07;;;;;;;5.22;2.55;;;;;;;9.60;68.83;100153.72;412546;23;4523;-71
2023/05/18 00:48:19;;;;;;;4.95;2.63;;;;;;;9.62;69.16;100156.28;408604;23;4533;-71
2023/05/18 00:48:31;;;;;;;5.82;2.90;;;;;;;9.62;68.92;100155.41;411476;23;4480;-72
2023/05/18 00:48:44;;;;;;;6.13;3.17;;;;;;;9.60;68.69;100158.91;411346;23;5178;-71
2023/05/18 00:48:57;;;;;;;5.68;3.00;;;;;;;9.60;68.81;100153.72;408097;23;18226;-72
2023/05/18 00:49:10;;;;;;;4.82;2.95;;;;;;;9.59;69.06;100151.97;411969;23;9104;-71
2023/05/18 00:49:22;;;;;;;6.07;3.03;;;;;;;9.58;69.43;100147.69;408840;23;18191;-72
2023/05/18 00:49:34;;;;;;;6.22;2.95;;;;;;;9.59;69.13;100151.97;409275;23;9496;-72
2023/05/18 00:49:47;;;;;;;5.30;2.72;;;;;;;9.56;69.17;100157.25;412081;23;4620;-71
2023/05/18 00:50:00;;;;;;;5.78;2.63;;;;;;;9.58;69.04;100152.88;413465;23;4946;-72
2023/05/18 00:50:12;;;;;;;7.20;2.90;;;;;;;9.58;68.96;100152.88;409382;23;19257;-71
2023/05/18 00:50:25;;;;;;;7.13;3.10;;;;;;;9.58;69.19;100155.47;409926;23;9031;-71
2023/05/18 00:50:37;;;;;;;5.57;2.90;;;;;;;9.56;69.09;100152.06;412505;23;4641;-71
2023/05/18 00:50:49;;;;;;;7.22;2.88;;;;;;;9.56;68.45;100152.06;412591;23;4776;-70
2023/05/18 00:51:01;;;;;;;7.45;2.88;;;;;;;9.56;68.16;100157.25;409119;23;19337;-71
2023/05/18 00:51:13;;;;;;;5.72;2.70;;;;;;;9.55;67.91;100155.53;412963;23;4607;-70
2023/05/18 00:51:26;;;;;;;5.00;2.58;;;;;;;9.53;67.90;100154.72;409870;23;18308;-70
2023/05/18 00:51:39;;;;;;;4.45;2.38;;;;;;;9.53;68.01;100157.31;412241;23;5189;-70
2023/05/18 00:51:52;;;;;;;3.55;2.30;;;;;;;9.51;68.51;100153.88;407993;23;18840;-72
2023/05/18 00:52:05;;;;;;;3.85;2.42;;;;;;;9.52;68.69;100155.59;406312;23;5184;-72
2023/05/18 00:52:17;;;;;;;4.78;2.53;;;;;;;9.53;68.54;100154.72;409767;23;18220;-71
2023/05/18 00:52:29;;;;;;;5.63;2.60;;;;;;;9.55;68.68;100158.13;411091;23;4972;-72
2023/05/18 00:52:42;;;;;;;5.97;2.55;;;;;;;9.55;68.67;100155.53;406007;23;18287;-72
2023/05/18 00:52:54;;;;;;;5.05;2.53;;;;;;;9.53;68.09;100152.09;408329;23;10340;-72
2023/05/18 00:53:09;;;;;;;5.55;2.58;;;;;;;9.52;68.26;100147.81;410219;23;4430;-74
2023/05/18 00:53:21;;;;;;;6.80;2.50;;;;;;;9.48;68.85;100156.56;407482;23;17592;-72
2023/05/18 00:53:34;;;;;;;6.85;2.50;;;;;;;9.49;68.90;100160.84;410594;23;4631;-72
2023/05/18 00:53:46;;;;;;;6.35;2.63;;;;;;;9.49;69.12;100150.47;407266;23;18000;-71
2023/05/18 00:54:01;;;;;;;6.63;2.80;;;;;;;9.44;68.19;100152.31;406713;23;4969;-72
2023/05/18 00:54:14;;;;;;;6.45;2.72;;;;;;;9.45;68.19;100156.59;409856;23;17533;-71
2023/05/18 00:54:26;;;;;;;6.45;2.83;;;;;;;9.45;67.87;100158.34;410148;23;18183;-70
2023/05/18 00:54:38;;;;;;;6.05;2.70;;;;;;;9.46;67.75;100158.31;413067;23;4617;-71
2023/05/18 00:54:51;;;;;;;4.85;2.55;;;;;;;9.48;67.98;100147.94;409237;23;18133;-71
2023/05/18 00:55:05;;;;;;;5.80;2.70;;;;;;;9.50;68.21;100157.38;413161;23;4636;-71
2023/05/18 00:55:17;;;;;;;5.30;2.60;;;;;;;9.52;68.17;100159.94;408902;23;18138;-70
2023/05/18 00:55:29;;;;;;;5.47;2.58;;;;;;;9.53;68.06;100152.09;412708;23;4607;-70
2023/05/18 00:55:42;;;;;;;5.28;2.60;;;;;;;9.57;67.76;100158.09;408838;23;18137;-73
2023/05/18 00:55:54;;;;;;;4.95;2.60;;;;;;;9.57;67.26;100158.94;411632;23;5783;-71
2023/05/18 00:56:07;;;;;;;5.30;2.55;;;;;;;9.58;67.12;100155.47;409190;23;17848;-70
2023/05/18 00:56:22;;;;;;;4.65;2.50;;;;;;;9.59;67.05;100162.38;414075;23;4950;-70
2023/05/18 00:56:40;;;;;;;4.75;2.47;;;;;;;9.62;67.18;100156.28;413871;23;17782;-70
2023/05/18 00:56:52;;;;;;;5.60;2.67;;;;;;;9.64;67.15;100153.63;411799;23;18446;-70
2023/05/18 00:57:05;;;;;;;6.40;2.80;;;;;;;9.64;67.28;100156.22;410648;23;4936;-70
2023/05/18 00:57:18;;;;;;;6.15;2.60;;;;;;;9.61;67.80;100154.56;414372;23;4592;-70
2023/05/18 00:57:32;;;;;;;4.68;2.35;;;;;;;9.59;68.09;100151.13;411182;23;19178;-70
2023/05/18 00:57:46;;;;;;;4.50;2.60;;;;;;;9.60;68.02;100153.72;414305;23;4646;-70
2023/05/18 00:58:01;;;;;;;5.43;2.53;;;;;;;9.58;67.87;100150.28;411266;23;17798;-71
2023/05/18 00:58:13;;;;;;;5.35;2.42;;;;;;;9.57;68.44;100156.34;411606;23;17785;-72
2023/05/18 00:58:26;;;;;;;6.03;2.60;;;;;;;9.58;68.03;100155.47;409373;23;16395;-70
2023/05/18 00:58:39;;;;;;;6.10;2.70;;;;;;;9.56;68.11;100157.25;413276;23;5127;-72
2023/05/18 00:58:56;;;;;;;4.82;2.80;;;;;;;9.54;67.89;100155.59;410175;23;18305;-72
2023/05/18 00:59:10;;;;;;;4.97;2.75;;;;;;;9.54;68.63;100156.44;413323;23;16338;-70
2023/05/18 00:59:22;;;;;;;4.45;2.70;;;;;;;9.53;68.63;100159.03;409864;23;18153;-70
2023/05/18 00:59:35;;;;;;;4.85;2.67;;;;;;;9.53;68.34;100157.31;411796;23;10110;-71
2023/05/18 00:59:48;;;;;;;6.13;3.03;;;;;;;9.55;68.70;100160.72;410818;23;18271;-70
2023/05/18 01:00:00;;;;;;;6.50;3.25;;;;;;;9.55;68.49;100160.72;410427;23;9584;-72
2023/05/18 01:00:13;;;;;;;5.22;2.90;;;;;;;9.53;68.11;100157.31;413052;23;5168;-72
2023/05/18 01:00:27;;;;;;;4.47;2.50;;;;;;;9.51;68.19;100156.47;409410;23;19056;-72
2023/05/18 01:00:40;;;;;;;4.78;2.70;;;;;;;9.54;68.30;100159.03;409915;23;9223;-72
2023/05/18 01:00:52;;;;;;;5.32;2.70;;;;;;;9.55;68.03;100154.69;412594;23;4605;-71
2023/05/18 01:01:04;;;;;;;5.80;2.60;;;;;;;9.56;67.93;100159.84;412116;23;4498;-72